Date,TemperatureHighF,TemperatureAvgF,TemperatureLowF,DewpointHighF,DewpointAvgF,DewpointLowF,HumidityHigh,HumidityAvg,HumidityLow,PressureMaxIn,PressureMinIn,WindSpeedMaxMPH,WindSpeedAvgMPH,GustSpeedMaxMPH,PrecipitationSumIn
2013-4-1,76.0,70.5,66.0,-99.9,-99.9,-99.9,0,0,100,30.09,30.01,8,3,11,0.00
2013-4-2,72.0,69.7,66.0,-99.9,-99.9,-99.9,0,0,100,30.13,30.04,13,-50,15,0.00
2013-4-3,80.0,72.8,67.0,-99.9,-99.9,-99.9,0,0,100,30.10,29.98,15,7,23,0.00
2013-4-4,78.0,71.3,66.0,-99.9,-99.9,-99.9,0,0,100,30.06,29.91,27,9,33,0.00
2013-4-5,72.0,68.8,66.0,-99.9,-99.9,-99.9,0,0,100,30.05,29.81,26,12,35,0.00
2013-4-6,69.0,64.7,61.0,-99.9,-99.9,-99.9,0,0,100,30.11,29.98,24,12,29,0.00
2013-4-7,79.0,69.9,62.0,-99.9,-99.9,-99.9,0,0,100,30.14,30.05,10,-23,16,0.00
2013-4-8,82.0,72.2,65.0,-99.9,-99.9,-99.9,0,0,100,30.14,30.06,11,-2,15,0.00
2013-4-9,81.0,72.8,65.0,-99.9,-99.9,-99.9,0,0,100,30.15,30.07,11,5,16,0.00
2013-4-10,83.0,74.0,67.0,-99.9,-99.9,-99.9,0,0,100,30.12,29.98,12,-2,17,0.00
2013-4-11,83.0,76.9,71.0,-99.9,-99.9,-99.9,0,0,100,30.02,29.88,21,11,32,0.00
2013-4-12,81.0,78.1,77.0,-99.9,-99.9,-99.9,0,0,100,29.97,29.89,21,8,31,0.00
2013-4-13,80.0,77.5,76.0,-99.9,-99.9,-99.9,0,0,100,30.01,29.86,16,7,20,0.00
2013-4-14,81.0,77.3,71.0,-99.9,-99.9,-99.9,0,0,100,29.98,29.88,16,5,21,0.00
2013-4-15,82.0,77.1,69.0,-99.9,-99.9,-99.9,0,0,100,30.09,29.96,15,-1,20,0.00
2013-4-16,86.0,77.7,71.0,-99.9,-99.9,-99.9,0,0,100,30.14,30.04,13,6,17,0.00
2013-4-17,86.0,77.1,71.0,-99.9,-99.9,-99.9,0,0,100,30.14,30.02,13,6,19,0.00
2013-4-18,83.0,77.9,72.0,-99.9,-99.9,-99.9,0,0,100,30.07,29.97,13,6,22,0.00
2013-4-19,83.0,78.6,74.0,-99.9,-99.9,-99.9,0,0,100,30.05,29.97,15,6,22,0.00
2013-4-20,82.0,77.8,74.0,-99.9,-99.9,-99.9,0,0,100,30.12,29.99,15,7,17,0.00
2013-4-21,84.0,73.2,68.0,-99.9,-99.9,-99.9,0,0,100,30.12,30.01,17,7,22,0.00
2013-4-22,83.0,73.8,69.0,-99.9,-99.9,-99.9,0,0,100,30.09,29.96,13,7,16,0.00
2013-4-23,85.0,74.7,67.0,-99.9,-99.9,-99.9,0,0,100,30.11,30.00,12,8,20,0.00
2013-4-24,80.0,73.8,65.0,-99.9,-99.9,-99.9,0,0,100,30.15,30.07,12,7,19,0.00
2013-4-25,81.0,75.0,68.0,-99.9,-99.9,-99.9,0,0,100,30.22,30.11,19,1,21,0.00
2013-4-26,85.0,76.0,67.0,-99.9,-99.9,-99.9,0,0,100,30.25,30.15,13,6,19,0.00
2013-4-27,85.0,75.7,67.0,-99.9,-99.9,-99.9,0,0,100,30.23,30.08,17,6,19,0.00
2013-4-28,83.0,75.1,69.0,-99.9,-99.9,-99.9,0,0,100,30.13,29.99,13,6,19,0.00
2013-4-29,82.0,74.7,68.0,-99.9,-99.9,-99.9,0,0,100,30.05,29.94,13,5,19,0.00
2013-4-30,82.0,75.7,70.0,-99.9,-99.9,-99.9,0,0,100,30.01,29.94,10,4,15,0.00